sensor_id;sensor_type;location;lat;lon;timestamp;P1;durP1;ratioP1;P2;durP2;ratioP2
12114;SDS011;6121;49.810;6.418;2022-07-01T00:01:37;1.92;;;1.83;;
12114;SDS011;6121;49.810;6.418;2022-07-01T00:04:05;0.80;;;0.80;;
12114;SDS011;6121;49.810;6.418;2022-07-01T00:06:31;1.00;;;0.90;;
12114;SDS011;6121;49.810;6.418;2022-07-01T00:08:57;0.80;;;0.80;;
12114;SDS011;6121;49.810;6.418;2022-07-01T00:11:23;0.90;;;0.90;;
12114;SDS011;6121;49.810;6.418;2022-07-01T00:13:48;0.95;;;0.93;;
12114;SDS011;6121;49.810;6.418;2022-07-01T00:16:14;1.17;;;1.00;;
12114;SDS011;6121;49.810;6.418;2022-07-01T00:18:40;0.90;;;0.90;;
12114;SDS011;6121;49.810;6.418;2022-07-01T00:21:05;1.10;;;1.00;;
12114;SDS011;6121;49.810;6.418;2022-07-01T00:23:31;1.08;;;1.00;;
12114;SDS011;6121;49.810;6.418;2022-07-01T00:25:57;0.90;;;0.90;;
12114;SDS011;6121;49.810;6.418;2022-07-01T00:28:22;1.03;;;1.00;;
12114;SDS011;6121;49.810;6.418;2022-07-01T00:30:48;0.83;;;0.83;;
12114;SDS011;6121;49.810;6.418;2022-07-01T00:33:13;0.90;;;0.90;;
12114;SDS011;6121;49.810;6.418;2022-07-01T00:35:39;1.10;;;1.10;;
12114;SDS011;6121;49.810;6.418;2022-07-01T00:38:05;1.10;;;1.00;;
12114;SDS011;6121;49.810;6.418;2022-07-01T00:40:31;0.97;;;0.97;;
12114;SDS011;6121;49.810;6.418;2022-07-01T00:42:56;0.90;;;0.90;;
12114;SDS011;6121;49.810;6.418;2022-07-01T00:45:22;1.77;;;1.30;;
12114;SDS011;6121;49.810;6.418;2022-07-01T00:47:47;1.75;;;1.15;;
12114;SDS011;6121;49.810;6.418;2022-07-01T00:50:15;1.75;;;1.23;;
12114;SDS011;6121;49.810;6.418;2022-07-01T00:52:41;1.33;;;1.10;;
12114;SDS011;6121;49.810;6.418;2022-07-01T00:55:09;1.63;;;1.30;;
12114;SDS011;6121;49.810;6.418;2022-07-01T00:57:36;1.00;;;1.00;;
12114;SDS011;6121;49.810;6.418;2022-07-01T01:00:03;1.33;;;1.10;;
12114;SDS011;6121;49.810;6.418;2022-07-01T01:02:35;1.73;;;1.17;;
12114;SDS011;6121;49.810;6.418;2022-07-01T01:05:01;1.27;;;1.13;;
12114;SDS011;6121;49.810;6.418;2022-07-01T01:07:32;2.58;;;1.40;;
12114;SDS011;6121;49.810;6.418;2022-07-01T01:09:58;2.80;;;1.40;;
12114;SDS011;6121;49.810;6.418;2022-07-01T01:12:26;2.25;;;1.33;;
12114;SDS011;6121;49.810;6.418;2022-07-01T01:14:52;2.53;;;1.30;;
12114;SDS011;6121;49.810;6.418;2022-07-01T01:17:18;2.50;;;1.40;;
12114;SDS011;6121;49.810;6.418;2022-07-01T01:19:47;1.30;;;1.20;;
12114;SDS011;6121;49.810;6.418;2022-07-01T01:22:14;1.50;;;1.20;;
12114;SDS011;6121;49.810;6.418;2022-07-01T01:24:41;1.50;;;1.10;;
12114;SDS011;6121;49.810;6.418;2022-07-01T01:27:07;1.30;;;1.10;;
12114;SDS011;6121;49.810;6.418;2022-07-01T01:29:34;1.10;;;1.00;;
12114;SDS011;6121;49.810;6.418;2022-07-01T01:32:01;0.90;;;0.90;;
12114;SDS011;6121;49.810;6.418;2022-07-01T01:34:28;1.60;;;1.10;;
12114;SDS011;6121;49.810;6.418;2022-07-01T01:36:53;1.40;;;1.17;;
12114;SDS011;6121;49.810;6.418;2022-07-01T01:39:19;1.30;;;1.10;;
12114;SDS011;6121;49.810;6.418;2022-07-01T01:41:46;0.98;;;0.98;;
12114;SDS011;6121;49.810;6.418;2022-07-01T01:44:12;1.70;;;1.20;;
12114;SDS011;6121;49.810;6.418;2022-07-01T01:46:44;1.27;;;1.20;;
12114;SDS011;6121;49.810;6.418;2022-07-01T01:49:09;1.20;;;1.10;;
12114;SDS011;6121;49.810;6.418;2022-07-01T01:51:36;2.10;;;1.40;;
12114;SDS011;6121;49.810;6.418;2022-07-01T01:54:02;1.30;;;1.20;;
12114;SDS011;6121;49.810;6.418;2022-07-01T01:56:28;1.70;;;1.40;;
12114;SDS011;6121;49.810;6.418;2022-07-01T01:58:54;1.23;;;1.13;;
12114;SDS011;6121;49.810;6.418;2022-07-01T02:01:21;1.70;;;1.43;;
12114;SDS011;6121;49.810;6.418;2022-07-01T02:03:47;1.30;;;1.20;;
12114;SDS011;6121;49.810;6.418;2022-07-01T02:06:14;1.70;;;1.60;;
12114;SDS011;6121;49.810;6.418;2022-07-01T02:08:41;1.65;;;1.50;;
12114;SDS011;6121;49.810;6.418;2022-07-01T02:11:07;1.70;;;1.50;;
12114;SDS011;6121;49.810;6.418;2022-07-01T02:13:34;1.38;;;1.35;;
12114;SDS011;6121;49.810;6.418;2022-07-01T02:16:00;2.17;;;1.90;;
12114;SDS011;6121;49.810;6.418;2022-07-01T02:18:26;1.63;;;1.52;;
12114;SDS011;6121;49.810;6.418;2022-07-01T02:20:52;2.60;;;1.60;;
12114;SDS011;6121;49.810;6.418;2022-07-01T02:23:18;2.50;;;1.73;;
12114;SDS011;6121;49.810;6.418;2022-07-01T02:25:44;1.75;;;1.65;;
12114;SDS011;6121;49.810;6.418;2022-07-01T02:28:11;4.20;;;2.78;;
12114;SDS011;6121;49.810;6.418;2022-07-01T02:30:36;1.55;;;1.30;;
12114;SDS011;6121;49.810;6.418;2022-07-01T02:33:06;1.65;;;1.30;;
12114;SDS011;6121;49.810;6.418;2022-07-01T02:35:36;1.65;;;1.48;;
12114;SDS011;6121;49.810;6.418;2022-07-01T02:38:05;1.52;;;1.25;;
12114;SDS011;6121;49.810;6.418;2022-07-01T02:40:32;1.33;;;1.23;;
12114;SDS011;6121;49.810;6.418;2022-07-01T02:42:59;1.10;;;1.10;;
12114;SDS011;6121;49.810;6.418;2022-07-01T02:45:25;2.03;;;1.50;;
12114;SDS011;6121;49.810;6.418;2022-07-01T02:47:51;1.33;;;1.23;;
12114;SDS011;6121;49.810;6.418;2022-07-01T02:50:17;1.50;;;1.20;;
12114;SDS011;6121;49.810;6.418;2022-07-01T02:52:43;1.15;;;1.15;;
12114;SDS011;6121;49.810;6.418;2022-07-01T02:55:10;2.13;;;1.55;;
12114;SDS011;6121;49.810;6.418;2022-07-01T02:57:37;1.10;;;1.10;;
12114;SDS011;6121;49.810;6.418;2022-07-01T03:00:03;1.13;;;1.08;;
12114;SDS011;6121;49.810;6.418;2022-07-01T03:02:31;1.35;;;1.20;;
12114;SDS011;6121;49.810;6.418;2022-07-01T03:04:57;1.65;;;1.40;;
12114;SDS011;6121;49.810;6.418;2022-07-01T03:07:23;1.40;;;1.20;;
12114;SDS011;6121;49.810;6.418;2022-07-01T03:09:49;1.10;;;1.10;;
12114;SDS011;6121;49.810;6.418;2022-07-01T03:12:14;1.50;;;1.30;;
12114;SDS011;6121;49.810;6.418;2022-07-01T03:14:59;1.10;;;1.10;;
12114;SDS011;6121;49.810;6.418;2022-07-01T03:17:25;1.30;;;1.20;;
12114;SDS011;6121;49.810;6.418;2022-07-01T03:19:52;1.00;;;1.00;;
12114;SDS011;6121;49.810;6.418;2022-07-01T03:22:22;1.33;;;1.23;;
12114;SDS011;6121;49.810;6.418;2022-07-01T03:24:49;1.00;;;1.00;;
12114;SDS011;6121;49.810;6.418;2022-07-01T03:27:16;2.35;;;1.48;;
12114;SDS011;6121;49.810;6.418;2022-07-01T03:29:42;1.30;;;1.20;;
12114;SDS011;6121;49.810;6.418;2022-07-01T03:32:08;1.70;;;1.33;;
12114;SDS011;6121;49.810;6.418;2022-07-01T03:34:38;1.30;;;1.20;;
12114;SDS011;6121;49.810;6.418;2022-07-01T03:37:09;2.00;;;1.50;;
12114;SDS011;6121;49.810;6.418;2022-07-01T03:39:36;1.40;;;1.25;;
12114;SDS011;6121;49.810;6.418;2022-07-01T03:42:03;1.35;;;1.30;;
12114;SDS011;6121;49.810;6.418;2022-07-01T03:44:30;1.30;;;1.20;;
12114;SDS011;6121;49.810;6.418;2022-07-01T03:46:56;1.33;;;1.23;;
12114;SDS011;6121;49.810;6.418;2022-07-01T03:49:21;1.47;;;1.33;;
12114;SDS011;6121;49.810;6.418;2022-07-01T03:51:47;1.20;;;1.20;;
12114;SDS011;6121;49.810;6.418;2022-07-01T03:54:13;1.30;;;1.20;;
12114;SDS011;6121;49.810;6.418;2022-07-01T03:57:04;1.40;;;1.30;;
12114;SDS011;6121;49.810;6.418;2022-07-01T03:59:35;1.33;;;1.25;;
12114;SDS011;6121;49.810;6.418;2022-07-01T04:02:05;1.30;;;1.20;;
12114;SDS011;6121;49.810;6.418;2022-07-01T04:04:32;1.45;;;1.27;;
12114;SDS011;6121;49.810;6.418;2022-07-01T04:06:59;1.20;;;1.20;;
12114;SDS011;6121;49.810;6.418;2022-07-01T04:09:26;1.50;;;1.30;;
12114;SDS011;6121;49.810;6.418;2022-07-01T04:11:53;1.40;;;1.30;;
12114;SDS011;6121;49.810;6.418;2022-07-01T04:14:19;1.40;;;1.30;;
12114;SDS011;6121;49.810;6.418;2022-07-01T04:16:45;1.35;;;1.35;;
12114;SDS011;6121;49.810;6.418;2022-07-01T04:19:11;1.50;;;1.40;;
12114;SDS011;6121;49.810;6.418;2022-07-01T04:21:38;1.33;;;1.33;;
12114;SDS011;6121;49.810;6.418;2022-07-01T04:24:22;1.43;;;1.33;;
12114;SDS011;6121;49.810;6.418;2022-07-01T04:26:49;1.50;;;1.40;;
12114;SDS011;6121;49.810;6.418;2022-07-01T04:29:16;1.90;;;1.40;;
12114;SDS011;6121;49.810;6.418;2022-07-01T04:31:42;1.50;;;1.40;;
12114;SDS011;6121;49.810;6.418;2022-07-01T04:34:08;1.47;;;1.37;;
12114;SDS011;6121;49.810;6.418;2022-07-01T04:36:34;1.70;;;1.60;;
12114;SDS011;6121;49.810;6.418;2022-07-01T04:39:00;1.58;;;1.48;;
12114;SDS011;6121;49.810;6.418;2022-07-01T04:41:27;1.73;;;1.63;;
12114;SDS011;6121;49.810;6.418;2022-07-01T04:44:11;1.50;;;1.40;;
12114;SDS011;6121;49.810;6.418;2022-07-01T04:46:37;1.53;;;1.53;;
12114;SDS011;6121;49.810;6.418;2022-07-01T04:49:02;1.47;;;1.37;;
12114;SDS011;6121;49.810;6.418;2022-07-01T04:51:28;3.03;;;1.77;;
12114;SDS011;6121;49.810;6.418;2022-07-01T04:53:54;1.45;;;1.40;;
12114;SDS011;6121;49.810;6.418;2022-07-01T04:56:20;1.83;;;1.73;;
12114;SDS011;6121;49.810;6.418;2022-07-01T04:58:45;1.30;;;1.30;;
12114;SDS011;6121;49.810;6.418;2022-07-01T05:01:11;1.88;;;1.58;;
12114;SDS011;6121;49.810;6.418;2022-07-01T05:03:37;1.75;;;1.55;;
12114;SDS011;6121;49.810;6.418;2022-07-01T05:06:03;3.50;;;2.00;;
12114;SDS011;6121;49.810;6.418;2022-07-01T05:08:30;1.50;;;1.40;;
12114;SDS011;6121;49.810;6.418;2022-07-01T05:10:55;2.47;;;1.70;;
12114;SDS011;6121;49.810;6.418;2022-07-01T05:13:21;1.60;;;1.40;;
12114;SDS011;6121;49.810;6.418;2022-07-01T05:15:47;2.07;;;1.87;;
12114;SDS011;6121;49.810;6.418;2022-07-01T05:18:12;1.95;;;1.70;;
12114;SDS011;6121;49.810;6.418;2022-07-01T05:20:56;1.60;;;1.50;;
12114;SDS011;6121;49.810;6.418;2022-07-01T05:23:41;1.60;;;1.50;;
12114;SDS011;6121;49.810;6.418;2022-07-01T05:26:07;2.00;;;1.80;;
12114;SDS011;6121;49.810;6.418;2022-07-01T05:28:32;2.60;;;1.77;;
12114;SDS011;6121;49.810;6.418;2022-07-01T05:30:58;1.30;;;1.30;;
12114;SDS011;6121;49.810;6.418;2022-07-01T05:33:23;1.35;;;1.33;;
12114;SDS011;6121;49.810;6.418;2022-07-01T05:35:51;1.90;;;1.80;;
12114;SDS011;6121;49.810;6.418;2022-07-01T05:38:17;1.30;;;1.30;;
12114;SDS011;6121;49.810;6.418;2022-07-01T05:40:43;1.50;;;1.40;;
12114;SDS011;6121;49.810;6.418;2022-07-01T05:43:08;1.57;;;1.47;;
12114;SDS011;6121;49.810;6.418;2022-07-01T05:45:34;1.95;;;1.85;;
12114;SDS011;6121;49.810;6.418;2022-07-01T05:47:59;1.60;;;1.47;;
12114;SDS011;6121;49.810;6.418;2022-07-01T05:50:25;4.40;;;1.90;;
12114;SDS011;6121;49.810;6.418;2022-07-01T05:52:51;2.00;;;1.63;;
12114;SDS011;6121;49.810;6.418;2022-07-01T05:55:16;3.08;;;2.00;;
12114;SDS011;6121;49.810;6.418;2022-07-01T05:57:42;2.00;;;1.60;;
12114;SDS011;6121;49.810;6.418;2022-07-01T06:00:07;1.63;;;1.50;;
12114;SDS011;6121;49.810;6.418;2022-07-01T06:02:34;1.75;;;1.55;;
12114;SDS011;6121;49.810;6.418;2022-07-01T06:05:00;3.08;;;1.88;;
12114;SDS011;6121;49.810;6.418;2022-07-01T06:07:27;3.42;;;2.00;;
12114;SDS011;6121;49.810;6.418;2022-07-01T06:09:53;2.03;;;1.65;;
12114;SDS011;6121;49.810;6.418;2022-07-01T06:12:19;2.22;;;1.83;;
12114;SDS011;6121;49.810;6.418;2022-07-01T06:14:45;1.60;;;1.50;;
12114;SDS011;6121;49.810;6.418;2022-07-01T06:17:10;2.67;;;1.80;;
12114;SDS011;6121;49.810;6.418;2022-07-01T06:19:38;1.30;;;1.30;;
12114;SDS011;6121;49.810;6.418;2022-07-01T06:22:04;1.75;;;1.65;;
12114;SDS011;6121;49.810;6.418;2022-07-01T06:24:30;2.05;;;1.88;;
12114;SDS011;6121;49.810;6.418;2022-07-01T06:26:56;1.88;;;1.73;;
12114;SDS011;6121;49.810;6.418;2022-07-01T06:29:22;2.20;;;1.73;;
12114;SDS011;6121;49.810;6.418;2022-07-01T06:31:47;2.00;;;1.80;;
12114;SDS011;6121;49.810;6.418;2022-07-01T06:34:13;2.27;;;1.83;;
12114;SDS011;6121;49.810;6.418;2022-07-01T06:36:39;2.40;;;1.80;;
12114;SDS011;6121;49.810;6.418;2022-07-01T06:39:04;3.00;;;2.20;;
12114;SDS011;6121;49.810;6.418;2022-07-01T06:41:30;2.20;;;2.10;;
12114;SDS011;6121;49.810;6.418;2022-07-01T06:43:59;4.55;;;2.22;;
12114;SDS011;6121;49.810;6.418;2022-07-01T06:46:27;2.47;;;2.28;;
12114;SDS011;6121;49.810;6.418;2022-07-01T06:48:53;2.10;;;1.77;;
12114;SDS011;6121;49.810;6.418;2022-07-01T06:51:20;3.30;;;2.20;;
12114;SDS011;6121;49.810;6.418;2022-07-01T06:53:45;2.40;;;2.20;;
12114;SDS011;6121;49.810;6.418;2022-07-01T06:56:12;4.03;;;3.72;;
12114;SDS011;6121;49.810;6.418;2022-07-01T06:58:39;2.78;;;2.47;;
12114;SDS011;6121;49.810;6.418;2022-07-01T07:01:05;2.78;;;1.60;;
12114;SDS011;6121;49.810;6.418;2022-07-01T07:03:31;1.35;;;1.25;;
12114;SDS011;6121;49.810;6.418;2022-07-01T07:06:02;2.42;;;1.50;;
12114;SDS011;6121;49.810;6.418;2022-07-01T07:08:28;2.22;;;1.45;;
12114;SDS011;6121;49.810;6.418;2022-07-01T07:10:55;1.50;;;1.40;;
12114;SDS011;6121;49.810;6.418;2022-07-01T07:13:21;2.03;;;1.40;;
12114;SDS011;6121;49.810;6.418;2022-07-01T07:15:47;1.40;;;1.30;;
12114;SDS011;6121;49.810;6.418;2022-07-01T07:18:12;1.30;;;1.20;;
12114;SDS011;6121;49.810;6.418;2022-07-01T07:20:38;1.67;;;1.58;;
12114;SDS011;6121;49.810;6.418;2022-07-01T07:23:04;2.57;;;1.40;;
12114;SDS011;6121;49.810;6.418;2022-07-01T07:25:30;1.38;;;1.23;;
12114;SDS011;6121;49.810;6.418;2022-07-01T07:27:56;2.75;;;1.45;;
12114;SDS011;6121;49.810;6.418;2022-07-01T07:30:22;2.23;;;1.30;;
12114;SDS011;6121;49.810;6.418;2022-07-01T07:32:48;1.77;;;1.63;;
12114;SDS011;6121;49.810;6.418;2022-07-01T07:35:14;2.87;;;1.60;;
12114;SDS011;6121;49.810;6.418;2022-07-01T07:37:40;1.40;;;1.30;;
12114;SDS011;6121;49.810;6.418;2022-07-01T07:40:06;2.05;;;1.40;;
12114;SDS011;6121;49.810;6.418;2022-07-01T07:42:35;2.70;;;1.50;;
12114;SDS011;6121;49.810;6.418;2022-07-01T07:45:01;1.13;;;1.13;;
12114;SDS011;6121;49.810;6.418;2022-07-01T07:47:28;1.13;;;1.08;;
12114;SDS011;6121;49.810;6.418;2022-07-01T07:49:54;1.85;;;1.25;;
12114;SDS011;6121;49.810;6.418;2022-07-01T07:52:19;2.15;;;1.33;;
12114;SDS011;6121;49.810;6.418;2022-07-01T07:54:45;2.27;;;1.37;;
12114;SDS011;6121;49.810;6.418;2022-07-01T07:57:10;2.85;;;1.50;;
12114;SDS011;6121;49.810;6.418;2022-07-01T07:59:36;2.15;;;1.20;;
12114;SDS011;6121;49.810;6.418;2022-07-01T08:02:02;2.17;;;1.30;;
12114;SDS011;6121;49.810;6.418;2022-07-01T08:04:28;1.40;;;1.30;;
12114;SDS011;6121;49.810;6.418;2022-07-01T08:06:54;3.03;;;1.60;;
12114;SDS011;6121;49.810;6.418;2022-07-01T08:09:19;3.40;;;1.60;;
12114;SDS011;6121;49.810;6.418;2022-07-01T08:11:45;4.15;;;1.90;;
12114;SDS011;6121;49.810;6.418;2022-07-01T08:14:11;3.85;;;2.05;;
12114;SDS011;6121;49.810;6.418;2022-07-01T08:16:36;5.17;;;2.77;;
12114;SDS011;6121;49.810;6.418;2022-07-01T08:19:02;3.10;;;1.92;;
12114;SDS011;6121;49.810;6.418;2022-07-01T08:21:28;1.98;;;1.45;;
12114;SDS011;6121;49.810;6.418;2022-07-01T08:23:54;1.77;;;1.25;;
12114;SDS011;6121;49.810;6.418;2022-07-01T08:26:20;3.60;;;2.00;;
12114;SDS011;6121;49.810;6.418;2022-07-01T08:28:46;1.40;;;1.30;;
12114;SDS011;6121;49.810;6.418;2022-07-01T08:31:12;1.60;;;1.30;;
12114;SDS011;6121;49.810;6.418;2022-07-01T08:33:38;1.90;;;1.80;;
12114;SDS011;6121;49.810;6.418;2022-07-01T08:36:04;2.10;;;1.30;;
12114;SDS011;6121;49.810;6.418;2022-07-01T08:38:30;1.33;;;1.07;;
12114;SDS011;6121;49.810;6.418;2022-07-01T08:40:56;1.00;;;0.95;;
12114;SDS011;6121;49.810;6.418;2022-07-01T08:43:22;1.45;;;1.10;;
12114;SDS011;6121;49.810;6.418;2022-07-01T08:45:48;1.00;;;1.00;;
12114;SDS011;6121;49.810;6.418;2022-07-01T08:48:16;1.10;;;1.00;;
12114;SDS011;6121;49.810;6.418;2022-07-01T08:50:42;1.00;;;0.95;;
12114;SDS011;6121;49.810;6.418;2022-07-01T08:53:09;0.90;;;0.90;;
12114;SDS011;6121;49.810;6.418;2022-07-01T08:55:35;1.15;;;1.05;;
12114;SDS011;6121;49.810;6.418;2022-07-01T08:58:22;1.23;;;1.10;;
12114;SDS011;6121;49.810;6.418;2022-07-01T09:00:48;1.52;;;1.20;;
12114;SDS011;6121;49.810;6.418;2022-07-01T09:03:14;1.17;;;1.08;;
12114;SDS011;6121;49.810;6.418;2022-07-01T09:05:40;0.97;;;0.97;;
12114;SDS011;6121;49.810;6.418;2022-07-01T09:08:14;2.08;;;1.23;;
12114;SDS011;6121;49.810;6.418;2022-07-01T09:10:40;0.80;;;0.80;;
12114;SDS011;6121;49.810;6.418;2022-07-01T09:13:09;1.27;;;1.00;;
12114;SDS011;6121;49.810;6.418;2022-07-01T09:15:37;0.88;;;0.88;;
12114;SDS011;6121;49.810;6.418;2022-07-01T09:20:34;0.90;;;0.90;;
12114;SDS011;6121;49.810;6.418;2022-07-01T09:23:02;1.55;;;1.13;;
12114;SDS011;6121;49.810;6.418;2022-07-01T09:30:37;1.95;;;1.30;;
12114;SDS011;6121;49.810;6.418;2022-07-01T09:33:14;1.48;;;1.10;;
12114;SDS011;6121;49.810;6.418;2022-07-01T09:35:41;1.77;;;1.27;;
12114;SDS011;6121;49.810;6.418;2022-07-01T09:38:10;0.90;;;0.90;;
12114;SDS011;6121;49.810;6.418;2022-07-01T09:40:46;0.80;;;0.80;;
12114;SDS011;6121;49.810;6.418;2022-07-01T09:43:14;0.90;;;0.90;;
12114;SDS011;6121;49.810;6.418;2022-07-01T09:45:51;0.88;;;0.88;;
12114;SDS011;6121;49.810;6.418;2022-07-01T09:48:20;1.02;;;0.93;;
12114;SDS011;6121;49.810;6.418;2022-07-01T09:51:07;2.25;;;1.38;;
12114;SDS011;6121;49.810;6.418;2022-07-01T09:53:34;1.23;;;1.05;;
12114;SDS011;6121;49.810;6.418;2022-07-01T09:56:00;1.30;;;1.10;;
12114;SDS011;6121;49.810;6.418;2022-07-01T09:58:26;1.42;;;1.10;;
12114;SDS011;6121;49.810;6.418;2022-07-01T10:00:53;0.90;;;0.90;;
12114;SDS011;6121;49.810;6.418;2022-07-01T10:03:19;2.25;;;1.33;;
12114;SDS011;6121;49.810;6.418;2022-07-01T10:05:50;1.02;;;1.00;;
12114;SDS011;6121;49.810;6.418;2022-07-01T10:14:02;1.95;;;1.20;;
12114;SDS011;6121;49.810;6.418;2022-07-01T10:16:30;1.25;;;1.15;;
12114;SDS011;6121;49.810;6.418;2022-07-01T10:18:57;1.10;;;1.00;;
12114;SDS011;6121;49.810;6.418;2022-07-01T10:21:27;1.25;;;1.10;;
12114;SDS011;6121;49.810;6.418;2022-07-01T10:24:10;0.88;;;0.88;;
12114;SDS011;6121;49.810;6.418;2022-07-01T10:26:37;0.80;;;0.80;;
12114;SDS011;6121;49.810;6.418;2022-07-01T10:29:03;1.10;;;1.00;;
12114;SDS011;6121;49.810;6.418;2022-07-01T10:31:35;0.90;;;0.90;;
12114;SDS011;6121;49.810;6.418;2022-07-01T10:34:02;0.85;;;0.85;;
12114;SDS011;6121;49.810;6.418;2022-07-01T10:36:29;0.90;;;0.90;;
12114;SDS011;6121;49.810;6.418;2022-07-01T10:42:13;0.90;;;0.90;;
12114;SDS011;6121;49.810;6.418;2022-07-01T10:44:24;1.02;;;0.93;;
12114;SDS011;6121;49.810;6.418;2022-07-01T10:46:54;0.90;;;0.90;;
12114;SDS011;6121;49.810;6.418;2022-07-01T10:52:01;2.85;;;1.60;;
12114;SDS011;6121;49.810;6.418;2022-07-01T10:59:48;1.02;;;0.98;;
12114;SDS011;6121;49.810;6.418;2022-07-01T11:02:15;1.10;;;1.00;;
12114;SDS011;6121;49.810;6.418;2022-07-01T11:04:45;1.13;;;1.00;;
12114;SDS011;6121;49.810;6.418;2022-07-01T11:07:11;1.25;;;1.10;;
12114;SDS011;6121;49.810;6.418;2022-07-01T11:09:37;1.88;;;1.23;;
12114;SDS011;6121;49.810;6.418;2022-07-01T11:12:04;0.90;;;0.90;;
12114;SDS011;6121;49.810;6.418;2022-07-01T11:14:35;1.10;;;1.00;;
12114;SDS011;6121;49.810;6.418;2022-07-01T11:17:02;0.90;;;0.90;;
12114;SDS011;6121;49.810;6.418;2022-07-01T11:19:28;1.20;;;1.10;;
12114;SDS011;6121;49.810;6.418;2022-07-01T11:21:54;0.90;;;0.90;;
12114;SDS011;6121;49.810;6.418;2022-07-01T11:24:21;1.10;;;1.00;;
12114;SDS011;6121;49.810;6.418;2022-07-01T11:26:47;0.93;;;0.90;;
12114;SDS011;6121;49.810;6.418;2022-07-01T11:29:14;1.50;;;1.10;;
12114;SDS011;6121;49.810;6.418;2022-07-01T11:31:51;0.80;;;0.80;;
12114;SDS011;6121;49.810;6.418;2022-07-01T11:34:17;0.90;;;0.90;;
12114;SDS011;6121;49.810;6.418;2022-07-01T11:36:44;0.80;;;0.80;;
12114;SDS011;6121;49.810;6.418;2022-07-01T11:39:29;0.82;;;0.82;;
12114;SDS011;6121;49.810;6.418;2022-07-01T11:42:01;1.40;;;1.00;;
12114;SDS011;6121;49.810;6.418;2022-07-01T11:47:00;0.90;;;0.90;;
12114;SDS011;6121;49.810;6.418;2022-07-01T11:49:27;0.85;;;0.85;;
12114;SDS011;6121;49.810;6.418;2022-07-01T11:51:53;0.97;;;0.93;;
12114;SDS011;6121;49.810;6.418;2022-07-01T11:54:21;2.30;;;1.40;;
12114;SDS011;6121;49.810;6.418;2022-07-01T11:56:50;0.80;;;0.80;;
12114;SDS011;6121;49.810;6.418;2022-07-01T11:59:16;2.50;;;1.67;;
12114;SDS011;6121;49.810;6.418;2022-07-01T12:01:42;0.90;;;0.90;;
12114;SDS011;6121;49.810;6.418;2022-07-01T12:04:17;1.40;;;1.10;;
12114;SDS011;6121;49.810;6.418;2022-07-01T12:06:42;1.37;;;1.20;;
12114;SDS011;6121;49.810;6.418;2022-07-01T12:09:15;1.10;;;1.00;;
12114;SDS011;6121;49.810;6.418;2022-07-01T12:11:48;1.20;;;1.10;;
12114;SDS011;6121;49.810;6.418;2022-07-01T12:14:35;1.75;;;1.30;;
12114;SDS011;6121;49.810;6.418;2022-07-01T12:17:04;1.40;;;1.10;;
12114;SDS011;6121;49.810;6.418;2022-07-01T12:22:16;1.63;;;1.20;;
12114;SDS011;6121;49.810;6.418;2022-07-01T12:24:44;0.80;;;0.80;;
12114;SDS011;6121;49.810;6.418;2022-07-01T12:27:10;1.95;;;1.30;;
12114;SDS011;6121;49.810;6.418;2022-07-01T12:32:18;1.20;;;1.00;;
12114;SDS011;6121;49.810;6.418;2022-07-01T12:34:56;2.22;;;1.38;;
12114;SDS011;6121;49.810;6.418;2022-07-01T12:37:27;2.92;;;1.70;;
12114;SDS011;6121;49.810;6.418;2022-07-01T12:40:40;1.50;;;1.20;;
12114;SDS011;6121;49.810;6.418;2022-07-01T12:42:47;1.05;;;0.98;;
12114;SDS011;6121;49.810;6.418;2022-07-01T12:45:13;2.30;;;1.40;;
12114;SDS011;6121;49.810;6.418;2022-07-01T12:47:42;1.48;;;1.20;;
12114;SDS011;6121;49.810;6.418;2022-07-01T12:50:09;1.85;;;1.30;;
12114;SDS011;6121;49.810;6.418;2022-07-01T12:55:27;1.23;;;1.10;;
12114;SDS011;6121;49.810;6.418;2022-07-01T12:57:56;1.10;;;0.98;;
12114;SDS011;6121;49.810;6.418;2022-07-01T13:00:25;1.50;;;1.15;;
12114;SDS011;6121;49.810;6.418;2022-07-01T13:02:56;1.35;;;1.10;;
12114;SDS011;6121;49.810;6.418;2022-07-01T13:05:23;0.90;;;0.90;;
12114;SDS011;6121;49.810;6.418;2022-07-01T13:07:50;0.80;;;0.80;;
12114;SDS011;6121;49.810;6.418;2022-07-01T13:10:17;1.00;;;1.00;;
12114;SDS011;6121;49.810;6.418;2022-07-01T13:12:43;1.00;;;1.00;;
12114;SDS011;6121;49.810;6.418;2022-07-01T13:15:10;1.10;;;1.00;;
12114;SDS011;6121;49.810;6.418;2022-07-01T13:17:36;0.90;;;0.90;;
12114;SDS011;6121;49.810;6.418;2022-07-01T13:20:02;1.30;;;1.10;;
12114;SDS011;6121;49.810;6.418;2022-07-01T13:22:28;1.10;;;1.00;;
12114;SDS011;6121;49.810;6.418;2022-07-01T13:24:54;0.90;;;0.90;;
12114;SDS011;6121;49.810;6.418;2022-07-01T13:27:20;1.17;;;1.07;;
12114;SDS011;6121;49.810;6.418;2022-07-01T13:29:47;1.00;;;0.95;;
12114;SDS011;6121;49.810;6.418;2022-07-01T13:32:13;1.60;;;1.20;;
12114;SDS011;6121;49.810;6.418;2022-07-01T13:34:39;1.08;;;0.98;;
12114;SDS011;6121;49.810;6.418;2022-07-01T13:37:05;1.10;;;1.00;;
12114;SDS011;6121;49.810;6.418;2022-07-01T13:39:30;1.98;;;1.27;;
12114;SDS011;6121;49.810;6.418;2022-07-01T13:41:56;0.88;;;0.88;;
12114;SDS011;6121;49.810;6.418;2022-07-01T13:44:22;1.77;;;1.17;;
12114;SDS011;6121;49.810;6.418;2022-07-01T13:46:48;0.80;;;0.80;;
12114;SDS011;6121;49.810;6.418;2022-07-01T13:49:13;1.20;;;1.10;;
12114;SDS011;6121;49.810;6.418;2022-07-01T13:51:39;1.08;;;0.98;;
12114;SDS011;6121;49.810;6.418;2022-07-01T13:54:05;0.93;;;0.90;;
12114;SDS011;6121;49.810;6.418;2022-07-01T13:56:31;0.97;;;0.90;;
12114;SDS011;6121;49.810;6.418;2022-07-01T13:58:57;1.25;;;1.05;;
12114;SDS011;6121;49.810;6.418;2022-07-01T14:01:22;1.77;;;1.27;;
12114;SDS011;6121;49.810;6.418;2022-07-01T14:03:48;0.90;;;0.90;;
12114;SDS011;6121;49.810;6.418;2022-07-01T14:06:14;1.50;;;1.10;;
12114;SDS011;6121;49.810;6.418;2022-07-01T14:08:40;0.90;;;0.90;;
12114;SDS011;6121;49.810;6.418;2022-07-01T14:11:06;1.42;;;1.10;;
12114;SDS011;6121;49.810;6.418;2022-07-01T14:13:32;1.10;;;1.00;;
12114;SDS011;6121;49.810;6.418;2022-07-01T14:15:59;1.10;;;1.00;;
12114;SDS011;6121;49.810;6.418;2022-07-01T14:18:25;1.10;;;1.00;;
12114;SDS011;6121;49.810;6.418;2022-07-01T14:20:51;1.10;;;1.00;;
12114;SDS011;6121;49.810;6.418;2022-07-01T14:23:17;1.52;;;1.13;;
12114;SDS011;6121;49.810;6.418;2022-07-01T14:25:43;2.10;;;1.37;;
12114;SDS011;6121;49.810;6.418;2022-07-01T14:28:10;1.30;;;1.20;;
12114;SDS011;6121;49.810;6.418;2022-07-01T14:30:37;1.15;;;1.08;;
12114;SDS011;6121;49.810;6.418;2022-07-01T14:33:03;1.03;;;0.97;;
12114;SDS011;6121;49.810;6.418;2022-07-01T14:35:28;1.00;;;1.00;;
12114;SDS011;6121;49.810;6.418;2022-07-01T14:37:54;2.13;;;1.40;;
12114;SDS011;6121;49.810;6.418;2022-07-01T14:40:20;1.40;;;1.15;;
12114;SDS011;6121;49.810;6.418;2022-07-01T14:42:45;0.90;;;0.90;;
12114;SDS011;6121;49.810;6.418;2022-07-01T14:45:11;1.20;;;1.00;;
12114;SDS011;6121;49.810;6.418;2022-07-01T14:47:39;0.95;;;0.90;;
12114;SDS011;6121;49.810;6.418;2022-07-01T14:50:05;1.17;;;1.08;;
12114;SDS011;6121;49.810;6.418;2022-07-01T14:52:31;1.38;;;1.10;;
12114;SDS011;6121;49.810;6.418;2022-07-01T14:54:57;1.58;;;1.20;;
12114;SDS011;6121;49.810;6.418;2022-07-01T14:57:22;1.40;;;1.20;;
12114;SDS011;6121;49.810;6.418;2022-07-01T14:59:48;1.50;;;1.10;;
12114;SDS011;6121;49.810;6.418;2022-07-01T15:02:14;1.15;;;1.00;;
12114;SDS011;6121;49.810;6.418;2022-07-01T15:04:40;1.40;;;1.10;;
12114;SDS011;6121;49.810;6.418;2022-07-01T15:07:06;1.30;;;1.00;;
12114;SDS011;6121;49.810;6.418;2022-07-01T15:09:31;0.80;;;0.80;;
12114;SDS011;6121;49.810;6.418;2022-07-01T15:11:57;1.48;;;1.20;;
12114;SDS011;6121;49.810;6.418;2022-07-01T15:14:23;1.37;;;1.00;;
12114;SDS011;6121;49.810;6.418;2022-07-01T15:16:49;1.05;;;0.95;;
12114;SDS011;6121;49.810;6.418;2022-07-01T15:19:14;0.93;;;0.90;;
12114;SDS011;6121;49.810;6.418;2022-07-01T15:21:40;0.80;;;0.80;;
12114;SDS011;6121;49.810;6.418;2022-07-01T15:24:06;1.02;;;1.00;;
12114;SDS011;6121;49.810;6.418;2022-07-01T15:26:31;0.80;;;0.80;;
12114;SDS011;6121;49.810;6.418;2022-07-01T15:28:57;1.10;;;1.00;;
12114;SDS011;6121;49.810;6.418;2022-07-01T15:31:23;1.10;;;0.97;;
12114;SDS011;6121;49.810;6.418;2022-07-01T15:33:50;0.90;;;0.90;;
12114;SDS011;6121;49.810;6.418;2022-07-01T15:36:16;1.30;;;1.10;;